createdAt,value
2022-12-06T00:00:51.141Z,6.75
2022-12-06T00:03:18.646Z,7.06
2022-12-06T00:05:46.602Z,6.92
2022-12-06T00:08:14.170Z,7.32
2022-12-06T00:10:41.717Z,7.71
2022-12-06T00:13:09.208Z,7.46
2022-12-06T00:15:38.282Z,7.23
2022-12-06T00:18:05.887Z,7.52
2022-12-06T00:20:33.382Z,6.81
2022-12-06T00:23:00.890Z,6.72
2022-12-06T00:25:28.339Z,7.35
2022-12-06T00:27:55.881Z,7.44
2022-12-06T00:30:23.389Z,6.88
2022-12-06T00:32:52.243Z,7.19
2022-12-06T00:35:19.708Z,7.08
2022-12-06T00:37:47.195Z,7.43
2022-12-06T00:40:14.775Z,7.61
2022-12-06T00:42:42.305Z,7.83
2022-12-06T00:45:10.048Z,8.05
2022-12-06T00:47:37.550Z,7.77
2022-12-06T00:50:07.415Z,7.67
2022-12-06T00:52:34.934Z,7.49
2022-12-06T00:55:02.386Z,7.60
2022-12-06T00:57:29.834Z,7.30
2022-12-06T00:59:57.541Z,7.60
2022-12-06T01:02:25.236Z,7.57
2022-12-06T01:04:52.757Z,7.28
2022-12-06T01:07:21.653Z,7.53
2022-12-06T01:09:49.127Z,7.14
2022-12-06T01:12:16.614Z,7.32
2022-12-06T01:14:44.105Z,7.66
2022-12-06T01:17:11.667Z,7.36
2022-12-06T01:19:39.214Z,7.41
2022-12-06T01:22:06.671Z,7.46
2022-12-06T01:24:35.564Z,7.46
2022-12-06T01:27:03.062Z,7.89
2022-12-06T01:29:30.559Z,7.72
2022-12-06T01:31:58.057Z,7.37
2022-12-06T01:34:25.519Z,6.46
2022-12-06T01:36:52.976Z,7.08
2022-12-06T01:39:20.559Z,6.47
2022-12-06T01:41:49.372Z,6.94
2022-12-06T01:44:35.336Z,6.60
2022-12-06T01:47:02.767Z,7.27
2022-12-06T01:49:30.860Z,7.28
2022-12-06T01:51:58.995Z,7.19
2022-12-06T01:54:26.452Z,6.94
2022-12-06T01:56:55.463Z,7.00
2022-12-06T01:59:23.084Z,7.34
2022-12-06T02:01:50.681Z,7.34
2022-12-06T02:04:18.307Z,6.94
2022-12-06T02:06:45.764Z,7.78
2022-12-06T02:09:13.517Z,7.69
2022-12-06T02:11:41.512Z,7.63
2022-12-06T02:14:11.036Z,7.42
2022-12-06T02:16:42.536Z,6.61
2022-12-06T02:19:14.868Z,7.21
2022-12-06T02:21:43.674Z,7.09
2022-12-06T02:24:20.289Z,7.42
2022-12-06T02:26:48.406Z,7.35
2022-12-06T02:29:40.155Z,7.94
2022-12-06T02:32:09.873Z,8.20
2022-12-06T02:34:40.251Z,8.04
2022-12-06T02:37:08.944Z,7.73
2022-12-06T02:39:37.237Z,7.55
2022-12-06T02:42:05.493Z,7.50
2022-12-06T02:44:34.300Z,7.46
2022-12-06T02:47:01.816Z,7.31
2022-12-06T02:49:32.551Z,7.53
2022-12-06T02:52:00.079Z,7.74
2022-12-06T02:54:27.648Z,7.34
2022-12-06T02:56:55.114Z,7.48
2022-12-06T02:59:22.609Z,7.55
2022-12-06T03:01:50.684Z,7.40
2022-12-06T03:04:46.579Z,7.23
2022-12-06T03:07:20.729Z,7.30
2022-12-06T03:09:54.195Z,7.50
2022-12-06T03:12:24.939Z,7.43
2022-12-06T03:14:55.573Z,7.42
2022-12-06T03:17:24.133Z,7.40
2022-12-06T03:19:52.627Z,7.26
2022-12-06T03:22:22.145Z,7.17
2022-12-06T03:24:49.653Z,7.22
2022-12-06T03:27:17.832Z,7.07
2022-12-06T03:29:46.631Z,7.16
2022-12-06T03:32:14.392Z,7.34
2022-12-06T03:34:42.342Z,7.34
2022-12-06T03:37:10.489Z,7.04
2022-12-06T03:39:40.360Z,6.83
2022-12-06T03:42:08.311Z,7.18
2022-12-06T03:44:35.836Z,7.29
2022-12-06T03:47:04.151Z,7.04
2022-12-06T03:49:32.925Z,6.71
2022-12-06T03:52:00.412Z,6.99
2022-12-06T03:54:27.859Z,6.98
2022-12-06T03:56:56.843Z,6.86
2022-12-06T03:59:24.297Z,6.89
2022-12-06T04:01:51.846Z,7.27
2022-12-06T04:04:19.438Z,7.04
2022-12-06T04:06:47.029Z,7.26
2022-12-06T04:09:32.128Z,7.27
2022-12-06T04:12:00.976Z,6.73
2022-12-06T04:14:32.389Z,6.48
2022-12-06T04:17:17.163Z,6.79
2022-12-06T04:19:49.371Z,7.03
2022-12-06T04:22:36.715Z,7.02
2022-12-06T04:25:04.260Z,6.88
2022-12-06T04:27:50.584Z,6.89
2022-12-06T04:30:35.512Z,6.68
2022-12-06T04:33:20.292Z,6.98
2022-12-06T04:36:05.216Z,7.00
2022-12-06T04:38:42.001Z,6.82
2022-12-06T04:41:09.575Z,7.19
2022-12-06T04:43:43.459Z,6.95
2022-12-06T04:46:11.296Z,6.51
2022-12-06T04:48:38.844Z,6.54
2022-12-06T04:51:06.532Z,6.85
2022-12-06T04:53:34.108Z,6.70
2022-12-06T04:56:01.647Z,6.88
2022-12-06T04:58:29.132Z,6.81
2022-12-06T05:00:58.064Z,7.03
2022-12-06T05:03:25.681Z,7.38
2022-12-06T05:05:53.207Z,6.86
2022-12-06T05:08:20.753Z,7.11
2022-12-06T05:10:48.882Z,7.27
2022-12-06T05:13:16.681Z,7.17
2022-12-06T05:15:49.971Z,6.93
2022-12-06T05:18:18.818Z,7.09
2022-12-06T05:20:46.451Z,7.24
2022-12-06T05:23:14.102Z,7.09
2022-12-06T05:25:41.958Z,6.80
2022-12-06T05:28:10.436Z,7.05
2022-12-06T05:30:37.948Z,7.02
2022-12-06T05:33:05.440Z,6.57
2022-12-06T05:35:34.342Z,6.72
2022-12-06T05:38:01.823Z,6.65
2022-12-06T05:40:29.325Z,6.93
2022-12-06T05:42:56.872Z,6.99
2022-12-06T05:45:24.832Z,6.61
2022-12-06T05:47:52.341Z,6.78
2022-12-06T05:50:19.903Z,7.04
2022-12-06T05:52:48.776Z,6.79
2022-12-06T05:55:16.444Z,6.86
2022-12-06T05:57:47.191Z,6.99
2022-12-06T06:00:16.079Z,7.15
2022-12-06T06:02:43.789Z,6.60
2022-12-06T06:05:11.322Z,6.83
2022-12-06T06:07:38.822Z,6.82
2022-12-06T06:10:08.816Z,6.64
2022-12-06T06:12:36.348Z,6.64
2022-12-06T06:15:06.972Z,6.21
2022-12-06T06:17:34.512Z,6.21
2022-12-06T06:20:05.514Z,6.72
2022-12-06T06:22:33.928Z,6.11
2022-12-06T06:25:01.536Z,6.33
2022-12-06T06:27:33.747Z,6.24
2022-12-06T06:30:01.539Z,6.36
2022-12-06T06:32:29.250Z,6.25
2022-12-06T06:34:56.757Z,6.08
2022-12-06T06:37:24.244Z,6.03
2022-12-06T06:39:51.752Z,6.23
2022-12-06T06:42:19.219Z,6.09
2022-12-06T06:44:48.060Z,6.39
2022-12-06T06:47:15.620Z,6.38
2022-12-06T06:49:43.127Z,6.65
2022-12-06T06:52:10.639Z,6.52
2022-12-06T06:54:38.178Z,6.12
2022-12-06T06:57:05.999Z,6.38
2022-12-06T06:59:33.485Z,6.12
2022-12-06T07:02:02.450Z,6.56
2022-12-06T07:04:30.157Z,6.64
2022-12-06T07:06:57.784Z,6.26
2022-12-06T07:09:25.297Z,6.52
2022-12-06T07:11:52.830Z,6.46
2022-12-06T07:14:20.272Z,6.31
2022-12-06T07:16:47.794Z,6.34
2022-12-06T07:19:16.720Z,6.17
2022-12-06T07:21:44.210Z,6.18
2022-12-06T07:24:11.697Z,6.49
2022-12-06T07:26:39.191Z,6.13
2022-12-06T07:29:06.664Z,6.34
2022-12-06T07:31:35.437Z,6.44
2022-12-06T07:34:03.166Z,6.29
2022-12-06T07:36:32.478Z,6.13
2022-12-06T07:39:00.459Z,6.09
2022-12-06T07:41:46.349Z,6.08
2022-12-06T07:44:31.801Z,5.86
2022-12-06T07:46:59.270Z,5.67
2022-12-06T07:49:26.757Z,5.81
2022-12-06T07:51:55.969Z,5.70
2022-12-06T07:54:24.158Z,6.05
2022-12-06T07:56:51.721Z,6.02
2022-12-06T07:59:19.304Z,5.89
2022-12-06T08:01:46.907Z,5.71
2022-12-06T08:04:14.521Z,5.93
2022-12-06T08:06:42.044Z,6.20
2022-12-06T08:09:11.000Z,5.91
2022-12-06T08:11:38.525Z,6.15
2022-12-06T08:14:06.134Z,6.34
2022-12-06T08:16:33.640Z,5.86
2022-12-06T08:19:01.793Z,6.13
2022-12-06T08:21:29.395Z,5.72
2022-12-06T08:23:57.049Z,6.22
2022-12-06T08:26:25.895Z,5.53
2022-12-06T08:28:53.451Z,5.96
2022-12-06T08:31:21.824Z,6.03
2022-12-06T08:33:49.350Z,5.83
2022-12-06T08:36:17.682Z,5.63
2022-12-06T08:38:45.235Z,6.11
2022-12-06T08:41:26.741Z,5.46
2022-12-06T08:43:55.704Z,5.93
2022-12-06T08:46:23.227Z,5.99
2022-12-06T08:48:50.848Z,6.08
2022-12-06T08:51:18.371Z,5.54
2022-12-06T08:53:45.811Z,5.48
2022-12-06T08:56:13.368Z,6.03
2022-12-06T08:58:40.874Z,5.79
2022-12-06T09:01:13.717Z,5.06
2022-12-06T09:03:41.176Z,5.45
2022-12-06T09:06:09.092Z,5.35
2022-12-06T09:08:36.665Z,5.31
2022-12-06T09:11:04.537Z,5.09
2022-12-06T09:13:32.038Z,5.48
2022-12-06T09:15:59.649Z,5.10
2022-12-06T09:18:28.577Z,5.31
2022-12-06T09:20:56.188Z,5.19
2022-12-06T09:23:23.667Z,5.19
2022-12-06T09:25:51.124Z,5.06
2022-12-06T09:28:18.643Z,5.17
2022-12-06T09:30:46.160Z,5.07
2022-12-06T09:33:13.651Z,5.28
2022-12-06T09:35:42.555Z,4.98
2022-12-06T09:38:10.124Z,5.01
2022-12-06T09:40:42.998Z,4.98
2022-12-06T09:43:14.424Z,5.22
2022-12-06T09:45:46.638Z,5.21
2022-12-06T09:48:34.308Z,5.19
2022-12-06T09:51:06.184Z,5.32
2022-12-06T09:53:36.226Z,5.53
2022-12-06T09:56:06.307Z,5.65
2022-12-06T09:58:44.408Z,5.94
2022-12-06T10:01:14.549Z,5.59
2022-12-06T10:04:06.222Z,5.59
2022-12-06T10:06:38.627Z,5.50
2022-12-06T10:09:28.219Z,5.91
2022-12-06T10:11:58.479Z,6.08
2022-12-06T10:14:29.766Z,5.90
2022-12-06T10:17:00.388Z,6.12
2022-12-06T10:19:30.586Z,6.04
2022-12-06T10:22:01.910Z,6.13
2022-12-06T10:24:33.609Z,6.41
2022-12-06T10:27:01.706Z,6.57
2022-12-06T10:29:30.238Z,7.31
2022-12-06T10:31:58.792Z,6.88
2022-12-06T10:34:30.441Z,6.60
2022-12-06T10:37:01.480Z,6.52
2022-12-06T10:39:29.817Z,6.59
2022-12-06T10:41:58.976Z,6.69
2022-12-06T10:44:27.443Z,6.79
2022-12-06T10:47:04.484Z,6.70
2022-12-06T10:49:36.048Z,7.00
2022-12-06T10:52:05.867Z,7.75
2022-12-06T10:54:34.409Z,7.50
2022-12-06T10:57:02.953Z,7.73
2022-12-06T10:59:33.059Z,7.78
2022-12-06T11:02:01.832Z,7.97
2022-12-06T11:04:30.305Z,6.86
2022-12-06T11:06:58.601Z,6.44
2022-12-06T11:09:30.525Z,7.00
2022-12-06T11:11:57.964Z,7.31
2022-12-06T11:14:26.317Z,6.97
2022-12-06T11:16:55.353Z,6.85
2022-12-06T11:19:24.708Z,6.68
2022-12-06T11:21:54.311Z,6.63
2022-12-06T11:24:22.616Z,6.55
2022-12-06T11:26:53.188Z,6.45
2022-12-06T11:29:20.785Z,6.64
2022-12-06T11:31:48.901Z,7.07
2022-12-06T11:34:17.478Z,6.55
2022-12-06T11:36:45.036Z,7.47
2022-12-06T11:39:12.653Z,7.10
2022-12-06T11:41:40.122Z,6.89
2022-12-06T11:44:09.967Z,7.34
2022-12-06T11:46:37.531Z,6.97
2022-12-06T11:49:06.914Z,7.06
2022-12-06T11:51:34.385Z,7.20
2022-12-06T11:54:03.353Z,7.11
2022-12-06T11:56:31.525Z,6.59
2022-12-06T11:59:05.015Z,6.76
2022-12-06T12:01:40.771Z,6.56
2022-12-06T12:04:25.083Z,6.39
2022-12-06T12:06:52.582Z,6.51
2022-12-06T12:09:20.486Z,6.63
2022-12-06T12:11:54.219Z,6.78
2022-12-06T12:14:25.536Z,6.78
2022-12-06T12:16:55.416Z,6.71
2022-12-06T12:19:26.488Z,7.05
2022-12-06T12:21:54.679Z,6.92
2022-12-06T12:25:03.339Z,6.96
2022-12-06T12:27:32.451Z,6.87
2022-12-06T12:30:18.288Z,6.95
2022-12-06T12:32:47.592Z,6.73
2022-12-06T12:35:25.229Z,7.20
2022-12-06T12:37:53.723Z,6.83
2022-12-06T12:40:22.888Z,6.95
2022-12-06T12:42:56.993Z,7.21
2022-12-06T12:45:26.781Z,7.86
2022-12-06T12:48:02.020Z,7.65
2022-12-06T12:50:29.960Z,7.43
2022-12-06T12:52:57.611Z,7.62
2022-12-06T12:55:26.280Z,7.76
2022-12-06T12:57:54.526Z,7.99
2022-12-06T13:00:22.702Z,7.59
2022-12-06T13:02:51.664Z,7.24
2022-12-06T13:05:39.592Z,7.30
2022-12-06T13:08:12.781Z,7.24
2022-12-06T13:10:40.535Z,7.46
2022-12-06T13:13:13.143Z,7.43
2022-12-06T13:15:42.653Z,7.22
2022-12-06T13:18:11.835Z,7.64
2022-12-06T13:20:40.656Z,7.43
2022-12-06T13:23:09.962Z,7.61
2022-12-06T13:25:37.462Z,7.52
2022-12-06T13:28:06.134Z,7.37
2022-12-06T13:30:34.420Z,7.56
2022-12-06T13:33:02.205Z,7.33
2022-12-06T13:35:32.056Z,7.52
2022-12-06T13:38:01.748Z,7.85
2022-12-06T13:40:37.662Z,8.33
2022-12-06T13:43:06.075Z,7.87
2022-12-06T13:45:41.413Z,7.47
2022-12-06T13:48:27.768Z,7.43
2022-12-06T13:50:55.691Z,7.50
2022-12-06T13:53:24.902Z,7.13
2022-12-06T13:56:01.091Z,7.16
2022-12-06T13:58:55.435Z,7.93
2022-12-06T14:01:40.052Z,7.48
2022-12-06T14:06:56.554Z,7.86
2022-12-06T14:09:26.527Z,7.43
2022-12-06T14:11:54.333Z,7.58
2022-12-06T14:14:22.514Z,7.39
2022-12-06T14:16:50.439Z,7.49
2022-12-06T14:19:19.012Z,7.30
2022-12-06T14:21:52.421Z,7.79
2022-12-06T14:24:31.539Z,7.73
2022-12-06T14:27:06.250Z,8.11
2022-12-06T14:29:34.007Z,7.73
2022-12-06T14:32:01.557Z,7.54
2022-12-06T14:34:29.704Z,7.41
2022-12-06T14:36:57.324Z,7.99
2022-12-06T14:39:25.391Z,7.58
2022-12-06T14:42:12.178Z,7.64
2022-12-06T14:44:39.714Z,7.88
2022-12-06T14:47:07.444Z,8.00
2022-12-06T14:49:53.178Z,7.89
2022-12-06T14:52:21.982Z,7.32
2022-12-06T14:54:50.050Z,7.25
2022-12-06T14:57:23.728Z,7.35
2022-12-06T15:02:47.941Z,7.72
2022-12-06T15:05:34.732Z,7.49
2022-12-06T15:08:17.196Z,7.67
2022-12-06T15:10:54.056Z,7.49
2022-12-06T15:13:22.980Z,7.61
2022-12-06T15:15:53.415Z,7.10
2022-12-06T15:18:25.500Z,7.23
2022-12-06T15:20:53.475Z,7.34
2022-12-06T15:23:30.968Z,7.05
2022-12-06T15:25:58.488Z,7.12
2022-12-06T15:28:27.392Z,7.41
2022-12-06T15:30:54.917Z,7.26
2022-12-06T15:33:22.963Z,7.49
2022-12-06T15:35:50.525Z,7.19
2022-12-06T15:38:18.085Z,7.62
2022-12-06T15:40:46.165Z,7.34
2022-12-06T15:43:21.215Z,7.60
2022-12-06T15:45:50.038Z,7.41
2022-12-06T15:48:17.491Z,7.37
2022-12-06T15:50:44.984Z,7.29
2022-12-06T15:53:13.551Z,7.21
2022-12-06T15:55:40.994Z,7.27
2022-12-06T15:58:08.459Z,7.52
2022-12-06T16:00:35.899Z,7.39
2022-12-06T16:03:04.820Z,7.85
2022-12-06T16:05:32.416Z,7.30
2022-12-06T16:07:59.892Z,7.42
2022-12-06T16:10:48.812Z,7.59
2022-12-06T16:13:24.101Z,7.16
2022-12-06T16:15:52.283Z,7.80
2022-12-06T16:18:21.340Z,7.37
2022-12-06T16:20:48.836Z,6.93
2022-12-06T16:24:04.563Z,7.30
2022-12-06T16:26:22.214Z,7.27
2022-12-06T16:28:49.680Z,7.37
2022-12-06T16:31:17.227Z,7.80
2022-12-06T16:33:46.083Z,7.43
2022-12-06T16:36:14.034Z,7.22
2022-12-06T16:38:41.518Z,7.15
2022-12-06T16:41:10.003Z,7.43
2022-12-06T16:43:37.548Z,7.59
2022-12-06T16:46:11.720Z,7.57
2022-12-06T16:48:39.237Z,8.05
2022-12-06T16:51:08.155Z,7.68
2022-12-06T16:53:35.674Z,7.59
2022-12-06T16:56:03.143Z,8.11
2022-12-06T16:58:30.581Z,8.08
2022-12-06T17:00:58.127Z,8.08
2022-12-06T17:03:25.689Z,8.01
2022-12-06T17:05:53.197Z,8.31
2022-12-06T17:08:22.461Z,7.61
2022-12-06T17:11:10.071Z,7.91
2022-12-06T17:13:37.596Z,8.09
2022-12-06T17:16:07.459Z,8.15
2022-12-06T17:18:34.971Z,7.75
2022-12-06T17:21:06.308Z,7.84
2022-12-06T17:23:35.212Z,7.90
2022-12-06T17:26:02.736Z,8.13
2022-12-06T17:28:30.244Z,7.52
2022-12-06T17:30:57.798Z,7.59
2022-12-06T17:33:25.262Z,7.42
2022-12-06T17:35:52.745Z,7.78
2022-12-06T17:38:20.223Z,7.65
2022-12-06T17:40:49.031Z,8.24
2022-12-06T17:43:15.516Z,7.39
2022-12-06T17:45:43.084Z,7.48
2022-12-06T17:48:10.598Z,7.78
2022-12-06T17:50:38.164Z,7.62
2022-12-06T17:53:05.704Z,7.39
2022-12-06T17:55:33.293Z,7.84
2022-12-06T17:58:02.560Z,7.74
2022-12-06T18:00:30.042Z,7.49
2022-12-06T18:02:57.656Z,7.42
2022-12-06T18:05:25.157Z,7.87
2022-12-06T18:07:52.700Z,7.45
2022-12-06T18:10:20.214Z,7.57
2022-12-06T18:12:47.732Z,7.98
2022-12-06T18:15:30.649Z,7.46
2022-12-06T18:17:58.188Z,7.61
2022-12-06T18:20:25.674Z,7.47
2022-12-06T18:22:53.206Z,7.80
2022-12-06T18:25:20.748Z,7.59
2022-12-06T18:27:48.995Z,7.57
2022-12-06T18:30:18.096Z,7.49
2022-12-06T18:32:45.597Z,7.41
2022-12-06T18:35:13.141Z,7.95
2022-12-06T18:37:41.014Z,7.53
2022-12-06T18:40:08.951Z,7.47
2022-12-06T18:42:37.237Z,7.55
2022-12-06T18:45:05.449Z,7.72
2022-12-06T18:47:34.431Z,7.58
2022-12-06T18:50:01.961Z,7.31
2022-12-06T18:52:29.513Z,7.61
2022-12-06T18:54:57.044Z,7.67
2022-12-06T18:57:30.529Z,8.01
2022-12-06T18:59:59.884Z,7.60
2022-12-06T19:02:27.747Z,8.06
2022-12-06T19:04:56.775Z,7.56
2022-12-06T19:07:25.190Z,7.61
2022-12-06T19:09:52.824Z,7.44
2022-12-06T19:12:20.366Z,7.95
2022-12-06T19:14:47.904Z,8.15
2022-12-06T19:17:15.359Z,7.53
2022-12-06T19:19:42.940Z,7.66
2022-12-06T19:22:11.840Z,7.88
2022-12-06T19:24:39.308Z,7.55
2022-12-06T19:27:06.787Z,7.31
2022-12-06T19:29:35.644Z,7.00
2022-12-06T19:32:03.438Z,6.74
2022-12-06T19:34:30.966Z,7.15
2022-12-06T19:36:58.495Z,6.68
2022-12-06T19:39:27.815Z,7.16
2022-12-06T19:42:12.669Z,7.18
2022-12-06T19:44:40.218Z,6.74
2022-12-06T19:47:07.721Z,6.58
2022-12-06T19:49:35.174Z,7.44
2022-12-06T19:52:02.748Z,6.84
2022-12-06T19:54:32.382Z,7.75
2022-12-06T19:57:00.546Z,7.75
2022-12-06T19:59:29.419Z,7.62
2022-12-06T20:01:58.376Z,7.23
2022-12-06T20:04:26.892Z,7.15
2022-12-06T20:06:54.665Z,7.41
2022-12-06T20:09:22.748Z,6.95
2022-12-06T20:12:03.729Z,7.44
2022-12-06T20:14:34.472Z,7.56
2022-12-06T20:17:02.296Z,7.05
2022-12-06T20:19:29.859Z,6.92
2022-12-06T20:21:57.479Z,7.08
2022-12-06T20:24:24.980Z,6.85
2022-12-06T20:26:54.494Z,7.12
2022-12-06T20:29:22.292Z,7.73
2022-12-06T20:31:51.044Z,7.41
2022-12-06T20:34:18.613Z,7.13
2022-12-06T20:36:46.233Z,7.43
2022-12-06T20:39:18.260Z,7.16
2022-12-06T20:41:45.753Z,7.78
2022-12-06T20:44:14.621Z,6.89
2022-12-06T20:46:42.320Z,7.05
2022-12-06T20:49:09.869Z,7.22
2022-12-06T20:51:37.516Z,7.08
2022-12-06T20:54:05.694Z,7.11
2022-12-06T20:56:34.726Z,7.55
2022-12-06T20:59:02.457Z,7.25
2022-12-06T21:01:32.076Z,6.95
2022-12-06T21:04:00.137Z,6.76
2022-12-06T21:06:27.728Z,6.97
2022-12-06T21:08:55.285Z,6.89
2022-12-06T21:11:24.334Z,6.65
2022-12-06T21:13:53.337Z,7.07
2022-12-06T21:16:21.678Z,6.94
2022-12-06T21:18:54.530Z,6.83
2022-12-06T21:21:22.531Z,7.24
2022-12-06T21:23:50.152Z,6.90
2022-12-06T21:26:17.601Z,7.36
2022-12-06T21:28:45.061Z,7.27
2022-12-06T21:31:12.558Z,7.03
2022-12-06T21:33:40.088Z,7.02
2022-12-06T21:36:09.472Z,7.22
2022-12-06T21:38:36.978Z,6.78
2022-12-06T21:41:04.938Z,7.15
2022-12-06T21:43:32.512Z,6.77
2022-12-06T21:46:03.346Z,7.02
2022-12-06T21:48:30.861Z,6.90
2022-12-06T21:51:00.849Z,7.24
2022-12-06T21:53:29.719Z,7.24
2022-12-06T21:55:57.234Z,7.16
2022-12-06T21:58:24.716Z,7.17
2022-12-06T22:00:52.308Z,7.06
2022-12-06T22:03:23.114Z,6.79
2022-12-06T22:05:51.024Z,6.46
2022-12-06T22:08:18.582Z,6.68
2022-12-06T22:10:47.539Z,6.40
2022-12-06T22:13:15.085Z,6.64
2022-12-06T22:15:42.667Z,6.37
2022-12-06T22:18:10.217Z,6.29
2022-12-06T22:20:37.687Z,6.15
2022-12-06T22:23:05.225Z,6.36
2022-12-06T22:25:32.745Z,6.79
2022-12-06T22:28:01.640Z,6.46
2022-12-06T22:30:29.087Z,6.36
2022-12-06T22:32:56.944Z,6.35
2022-12-06T22:35:24.420Z,6.26
2022-12-06T22:37:51.920Z,6.31
2022-12-06T22:40:19.458Z,6.56
2022-12-06T22:42:46.965Z,6.67
2022-12-06T22:45:15.891Z,6.47
2022-12-06T22:47:43.363Z,6.16
2022-12-06T22:50:10.900Z,6.36
2022-12-06T22:52:38.397Z,6.46
2022-12-06T22:55:06.125Z,6.52
2022-12-06T22:57:33.697Z,6.57
2022-12-06T23:00:01.389Z,6.38
2022-12-06T23:02:30.460Z,5.96
2022-12-06T23:04:57.981Z,6.43
2022-12-06T23:07:25.459Z,6.24
2022-12-06T23:09:52.925Z,6.48
2022-12-06T23:12:20.354Z,6.64
2022-12-06T23:14:47.869Z,6.01
2022-12-06T23:17:15.336Z,6.41
2022-12-06T23:19:44.210Z,6.38
2022-12-06T23:22:11.684Z,6.02
2022-12-06T23:24:39.149Z,6.15
2022-12-06T23:27:06.680Z,6.02
2022-12-06T23:29:34.204Z,5.95
2022-12-06T23:32:01.765Z,6.16
2022-12-06T23:34:30.036Z,6.09
2022-12-06T23:36:58.880Z,6.29
2022-12-06T23:39:26.476Z,6.01
2022-12-06T23:41:54.009Z,5.93
2022-12-06T23:44:21.608Z,6.19
2022-12-06T23:46:49.149Z,5.78
2022-12-06T23:49:18.072Z,5.76
2022-12-06T23:51:45.836Z,5.59
2022-12-06T23:54:15.119Z,5.72
2022-12-06T23:56:42.896Z,5.61
2022-12-06T23:59:11.563Z,5.62
